Costa Victoria — IBLC — position and weather

sailwx.info

Track history (hours):
 
Tides and Currents Weather Stations Pressure Air Temp Water Temp Dewpoint Dewpoint Depression Visibility Wind Speed Wind Dir Waves Ship Positions

Costa Victoria

Last reported at 2018-Apr-25 00:35 UTC. Time now 2018-Apr-25 02:41 UTC.
Position N 41°23' E 009°25'.

Length 252 m; draft 8.2 m.

Type: Passenger vessel. MMSI: 247109000.

Date/timePositionNaut miles runAvg speedWind from/ knotsBaromVisibWave heightAir tempDewpointWater temp
2018-Apr-25 00:35N 41°23' E 009°25'116.0
2018-Apr-25 00:30N 41°23' E 009°26'1015.8
2018-Apr-24 23:54N 41°27' E 009°38'615.8
2018-Apr-24 23:30N 41°30' E 009°46'4115.7
2018-Apr-24 20:55N 41°45' E 010°36'715.7
2018-Apr-24 20:30N 41°48' E 010°44'815.6
2018-Apr-24 20:00N 41°51' E 010°53'815.6
2018-Apr-24 19:30N 41°54' E 011°03'815.6
2018-Apr-24 19:01N 41°57' E 011°12'10 0.7
2018-Apr-24 03:32N 42°07' E 011°16'218.5
2018-Apr-24 03:26N 42°07' E 011°14'1318.4
2018-Apr-24 02:43N 42°09' E 010°56'418.6
2018-Apr-24 02:30N 42°09' E 010°51'1218.8
2018-Apr-24 01:53N 42°11' E 010°35'818.7
2018-Apr-24 01:29N 42°12' E 010°25'918.6
2018-Apr-24 01:00N 42°13' E 010°14'918.5
2018-Apr-24 00:30N 42°15' E 010°01'815.2
2018-Apr-24 00:00N 42°19' E 009°53'917.7
2018-Apr-23 23:30N 42°28' E 009°51'918.8
2018-Apr-23 23:00N 42°37' E 009°46'1019.2
2018-Apr-23 22:30N 42°46' E 009°41'1019.3
2018-Apr-23 22:00N 42°55' E 009°38'1019.3
2018-Apr-23 21:30N 43°04' E 009°35'1019.8
2018-Apr-23 21:00N 43°14' E 009°32'1019.6
2018-Apr-23 20:30N 43°24' E 009°30'1019.9
2018-Apr-23 20:00N 43°33' E 009°36'1019.6
2018-Apr-23 19:30N 43°42' E 009°42'1019.5
2018-Apr-23 19:00N 43°50' E 009°49'918.7
2018-Apr-23 18:30N 43°59' E 009°53'713.0
2018-Apr-23 18:00N 44°05' E 009°51'1 2.6
2018-Apr-23 17:29N 44°06' E 009°50'0 0.0
2018-Apr-23 16:59N 44°06' E 009°50'0 0.0
2018-Apr-23 16:29N 44°06' E 009°50'0 0.0
2018-Apr-23 15:59N 44°06' E 009°50'0 0.0
2018-Apr-23 15:29N 44°06' E 009°50'0 0.0
2018-Apr-23 14:59N 44°06' E 009°50'0 0.0
2018-Apr-23 14:29N 44°06' E 009°50'0 0.0
2018-Apr-23 13:59N 44°06' E 009°50'0 0.0
2018-Apr-23 13:29N 44°06' E 009°50'0 0.0
2018-Apr-23 12:59N 44°06' E 009°50'0 0.0
2018-Apr-23 12:29N 44°06' E 009°50'0 0.0
2018-Apr-23 11:59N 44°06' E 009°50'0 0.0
2018-Apr-23 11:29N 44°06' E 009°50'0 0.0
2018-Apr-23 10:59N 44°06' E 009°50'0 0.0
2018-Apr-23 10:29N 44°06' E 009°50'0 0.0
2018-Apr-23 10:00N 44°06' E 009°50'0 0.0
2018-Apr-23 09:30N 44°06' E 009°50'0 0.0
2018-Apr-23 09:00N 44°06' E 009°50'0 0.0
2018-Apr-23 08:30N 44°06' E 009°50'0 0.0
2018-Apr-23 08:00N 44°06' E 009°50'0 0.0
2018-Apr-23 07:30N 44°06' E 009°50'0 0.0
2018-Apr-23 07:00N 44°06' E 009°50'0 0.0
2018-Apr-23 06:30N 44°06' E 009°50'0 0.0
2018-Apr-23 06:00N 44°06' E 009°50'0 0.0
2018-Apr-23 05:30N 44°06' E 009°50'0 0.0
2018-Apr-23 05:00N 44°06' E 009°50'0 0.2
2018-Apr-23 04:31N 44°06' E 009°50'4 7.4
2018-Apr-23 04:00N 44°03' E 009°52'510.7
2018-Apr-23 03:31N 43°58' E 009°56'510.2
2018-Apr-23 03:01N 43°53' E 009°55'5 9.8
2018-Apr-23 02:30N 43°49' E 009°52'510.2
2018-Apr-23 02:01N 43°46' E 009°47'5 9.9
2018-Apr-23 01:31N 43°43' E 009°41'5 9.7
2018-Apr-23 01:00N 43°44' E 009°34'510.0
2018-Apr-23 00:31N 43°44' E 009°27'5 9.9
2018-Apr-23 00:00N 43°44' E 009°20'5 9.8
2018-Apr-22 23:30N 43°44' E 009°14'5 9.7
2018-Apr-22 23:01N 43°44' E 009°07'5 9.5
2018-Apr-22 22:30N 43°47' E 009°02'510.0
2018-Apr-22 22:01N 43°51' E 008°58'5 9.9
2018-Apr-22 21:31N 43°55' E 008°55'5 9.6
2018-Apr-22 21:00N 43°59' E 008°51'5 9.7
2018-Apr-22 20:30N 44°03' E 008°47'5 9.7
2018-Apr-22 20:00N 44°07' E 008°43'5 9.7
2018-Apr-22 19:31N 44°11' E 008°39'5 9.6
2018-Apr-22 19:01N 44°15' E 008°35'510.0
2018-Apr-22 18:30N 44°19' E 008°31'1 1.9
2018-Apr-22 18:00N 44°19' E 008°29'0 0.0
2018-Apr-22 17:30N 44°19' E 008°29'0 0.0
2018-Apr-22 17:00N 44°19' E 008°29'0 0.0
2018-Apr-22 16:30N 44°19' E 008°29'0 0.0
2018-Apr-22 16:00N 44°19' E 008°29'0 0.0
2018-Apr-22 15:30N 44°19' E 008°29'0 0.0
2018-Apr-22 15:00N 44°19' E 008°29'0 0.0
2018-Apr-22 14:30N 44°19' E 008°29'0 0.0
2018-Apr-22 14:00N 44°19' E 008°29'0 0.0
2018-Apr-22 13:30N 44°19' E 008°29'0 0.0
2018-Apr-22 13:00N 44°19' E 008°29'0 0.0
2018-Apr-22 12:30N 44°19' E 008°29'0 0.0
2018-Apr-22 12:00N 44°19' E 008°29'0 0.0
2018-Apr-22 11:30N 44°19' E 008°29'0 0.0
2018-Apr-22 11:00N 44°19' E 008°29'0 0.0
2018-Apr-22 10:30N 44°19' E 008°29'0 0.0
2018-Apr-22 10:00N 44°19' E 008°29'0 0.0
2018-Apr-22 09:30N 44°19' E 008°29'0 0.0
2018-Apr-22 09:00N 44°19' E 008°29'0 0.0
2018-Apr-22 08:30N 44°19' E 008°29'0 0.0
2018-Apr-22 08:00N 44°19' E 008°29'0 0.0
2018-Apr-22 07:30N 44°19' E 008°29'0 0.0
2018-Apr-22 07:00N 44°19' E 008°29'0 0.0
2018-Apr-22 06:30N 44°19' E 008°29'0 0.0
2018-Apr-22 06:00N 44°19' E 008°29'0 0.3
2018-Apr-22 05:30N 44°19' E 008°29'2 4.0
2018-Apr-22 05:00N 44°17' E 008°32'510.7
2018-Apr-22 04:30N 44°12' E 008°32'510.6
2018-Apr-22 04:00N 44°07' E 008°29'612.3
2018-Apr-22 03:31N 44°02' E 008°25'714.5
2018-Apr-22 03:01N 43°55' E 008°22'815.7
2018-Apr-22 02:30N 43°49' E 008°14'816.3
2018-Apr-22 02:00N 43°45' E 008°05'816.2
2018-Apr-22 01:31N 43°40' E 007°56'815.8
2018-Apr-22 01:01N 43°36' E 007°47'815.7
2018-Apr-22 00:30N 43°32' E 007°37'816.0
2018-Apr-22 00:01N 43°27' E 007°29'816.5
2018-Apr-21 23:30N 43°22' E 007°20'917.2
2018-Apr-21 23:00N 43°17' E 007°10'816.6
2018-Apr-21 22:31N 43°12' E 007°02'7114.6
2018-Apr-21 17:37N 43°07' E 005°24'216.1
2018-Apr-21 17:30N 43°08' E 005°22'715.3
2018-Apr-21 17:01N 43°14' E 005°16'714.0
2018-Apr-21 16:30N 43°21' E 005°18'2 0.2
2018-Apr-21 07:53N 43°20' E 005°20'0 0.0
2018-Apr-21 05:59N 43°20' E 005°20'2 3.7
2018-Apr-21 05:24N 43°21' E 005°18'410.6
2018-Apr-21 04:59N 43°18' E 005°13'817.6
2018-Apr-21 04:30N 43°10' E 005°08'1020.2
2018-Apr-21 04:00N 43°03' E 004°59'1019.8
2018-Apr-21 03:30N 42°56' E 004°49'917.4
2018-Apr-21 03:00N 42°49' E 004°41'12317.6
2018-Apr-20 20:03N 41°25' E 002°41'119.4
2018-Apr-20 20:00N 41°25' E 002°40'1019.3
2018-Apr-20 19:31N 41°19' E 002°30'1019.4
2018-Apr-20 19:01N 41°13' E 002°20'918.8
2018-Apr-20 18:31N 41°10' E 002°08'1019.1
2018-Apr-20 18:01N 41°07' E 001°56'1019.2
2018-Apr-20 17:31N 41°05' E 001°43'1019.4
2018-Apr-20 17:01N 41°04' E 001°31'107 4.7
2018-Apr-19 18:15N 39°23' E 002°20'310.8
2018-Apr-19 18:00N 39°23' E 002°23'510.9
2018-Apr-19 17:30N 39°23' E 002°31'510.7
2018-Apr-19 17:00N 39°27' E 002°36'611.0
2018-Apr-19 16:30N 39°32' E 002°39'2 3.9
2018-Apr-19 15:59N 39°33' E 002°38'0 0.0
2018-Apr-19 15:29N 39°33' E 002°38'0 0.0
2018-Apr-19 14:59N 39°33' E 002°38'0 0.0
2018-Apr-19 14:29N 39°33' E 002°38'0 0.0
2018-Apr-19 13:59N 39°33' E 002°38'0 0.0
2018-Apr-19 13:29N 39°33' E 002°38'0 0.0
2018-Apr-19 12:59N 39°33' E 002°38'0 0.0
2018-Apr-19 12:29N 39°33' E 002°38'0 0.0
2018-Apr-19 11:59N 39°33' E 002°38'0 0.0
2018-Apr-19 11:29N 39°33' E 002°38'0 0.0
2018-Apr-19 10:59N 39°33' E 002°38'0 0.0
2018-Apr-19 10:29N 39°33' E 002°38'0 0.0
2018-Apr-19 09:59N 39°33' E 002°38'0 0.0
2018-Apr-19 09:29N 39°33' E 002°38'0 0.0
2018-Apr-19 08:59N 39°33' E 002°38'0 0.0
2018-Apr-19 08:29N 39°33' E 002°38'0 0.0
2018-Apr-19 07:59N 39°33' E 002°38'0 0.0
2018-Apr-19 07:29N 39°33' E 002°38'0 0.0
2018-Apr-19 06:59N 39°33' E 002°38'0 0.0
2018-Apr-19 06:29N 39°33' E 002°38'0 0.0
2018-Apr-19 05:59N 39°33' E 002°38'1 1.0
2018-Apr-19 05:30N 39°33' E 002°39'3 6.4
2018-Apr-19 05:00N 39°30' E 002°37'5 9.7
2018-Apr-19 04:30N 39°27' E 002°33'510.2
2018-Apr-19 04:00N 39°26' E 002°27'611.3
2018-Apr-19 03:30N 39°29' E 002°21'20 7.8
2018-Apr-19 00:58N 39°48' E 002°28'510.1
2018-Apr-19 00:30N 39°50' E 002°33'5 9.6
2018-Apr-19 00:00N 39°53' E 002°38'5 9.9
2018-Apr-18 23:29N 39°56' E 002°44'1110.5
2018-Apr-18 22:24N 40°03' E 002°56'388 9.0
2018-Apr-17 03:03N 42°08' E 011°04'218.6
2018-Apr-17 02:57N 42°08' E 011°01'818.5
2018-Apr-17 02:30N 42°09' E 010°50'1019.8
2018-Apr-17 02:00N 42°11' E 010°37'1019.8
2018-Apr-17 01:30N 42°12' E 010°24'1019.9
2018-Apr-17 01:00N 42°14' E 010°11'1019.9
2018-Apr-17 00:30N 42°17' E 009°58'1019.9
2018-Apr-16 23:59N 42°26' E 009°53'1020.0
2018-Apr-16 23:29N 42°36' E 009°48'920.0
2018-Apr-16 23:00N 42°44' E 009°43'1119.6
2018-Apr-16 22:26N 42°55' E 009°38'819.9
2018-Apr-16 22:00N 43°03' E 009°35'1019.9
2018-Apr-16 21:30N 43°13' E 009°32'1020.3
2018-Apr-16 21:00N 43°23' E 009°30'1019.9
2018-Apr-16 20:30N 43°32' E 009°36'1020.1
2018-Apr-16 20:00N 43°41' E 009°42'1020.1
2018-Apr-16 19:30N 43°50' E 009°48'1019.6
2018-Apr-16 19:00N 43°59' E 009°53'713.6
2018-Apr-16 18:30N 44°06' E 009°51'1 1.5
2018-Apr-16 17:58N 44°06' E 009°50'0 0.0
2018-Apr-16 17:28N 44°06' E 009°50'0 0.0
2018-Apr-16 16:58N 44°06' E 009°50'0 0.0
2018-Apr-16 16:25N 44°06' E 009°50'0 0.0
2018-Apr-16 15:58N 44°06' E 009°50'0 0.0
2018-Apr-16 15:28N 44°06' E 009°50'0 0.0
2018-Apr-16 14:58N 44°06' E 009°50'0 0.0
2018-Apr-16 14:28N 44°06' E 009°50'0 0.0
2018-Apr-16 13:58N 44°06' E 009°50'0 0.0
2018-Apr-16 13:28N 44°06' E 009°50'0 0.0
2018-Apr-16 12:58N 44°06' E 009°50'0 0.0
2018-Apr-16 12:28N 44°06' E 009°50'0 0.0
2018-Apr-16 11:58N 44°06' E 009°50'0 0.0
2018-Apr-16 11:28N 44°06' E 009°50'0 0.0
2018-Apr-16 10:58N 44°06' E 009°50'0 0.0
2018-Apr-16 10:28N 44°06' E 009°50'0 0.0
2018-Apr-16 09:58N 44°06' E 009°50'0 0.0
2018-Apr-16 09:28N 44°06' E 009°50'0 0.0
2018-Apr-16 08:58N 44°06' E 009°50'0 0.0
2018-Apr-16 08:28N 44°06' E 009°50'0 0.0
2018-Apr-16 07:58N 44°06' E 009°50'0 0.0
2018-Apr-16 07:28N 44°06' E 009°50'0 0.0
2018-Apr-16 06:58N 44°06' E 009°50'0 0.0
2018-Apr-16 06:28N 44°06' E 009°50'0 0.0
2018-Apr-16 05:58N 44°06' E 009°50'0 0.0
2018-Apr-16 05:28N 44°06' E 009°50'0 0.0
2018-Apr-16 04:58N 44°06' E 009°50'0 0.3
2018-Apr-16 04:30N 44°06' E 009°50'3 6.3
2018-Apr-16 04:00N 44°03' E 009°52'5 9.8
2018-Apr-16 03:30N 43°60' E 009°56'510.6
2018-Apr-16 03:00N 43°55' E 009°55'510.1
2018-Apr-16 02:30N 43°50' E 009°53'5 9.6
2018-Apr-16 02:00N 43°47' E 009°48'5 9.1
2018-Apr-16 01:30N 43°44' E 009°43'5 9.7
2018-Apr-16 01:00N 43°44' E 009°36'5 9.9
2018-Apr-16 00:30N 43°44' E 009°29'510.1
2018-Apr-16 00:00N 43°44' E 009°22'5 9.6
2018-Apr-15 23:30N 43°44' E 009°16'5 9.3
2018-Apr-15 23:00N 43°44' E 009°09'4 8.7
2018-Apr-15 22:30N 43°45' E 009°04'510.2
2018-Apr-15 22:00N 43°50' E 008°60'510.1
2018-Apr-15 21:30N 43°54' E 008°56'510.3
2018-Apr-15 21:00N 43°58' E 008°52'510.6
2018-Apr-15 20:30N 44°02' E 008°47'611.0
2018-Apr-15 20:00N 44°07' E 008°43'510.6
2018-Apr-15 19:30N 44°11' E 008°39'510.3
2018-Apr-15 19:00N 44°15' E 008°34'5 9.3
2018-Apr-15 18:30N 44°19' E 008°30'1 1.6
2018-Apr-15 18:00N 44°19' E 008°29'0 0.0
2018-Apr-15 17:30N 44°19' E 008°29'0 0.0
2018-Apr-15 17:00N 44°19' E 008°29'0 0.0
2018-Apr-15 16:30N 44°19' E 008°29'0 0.0
2018-Apr-15 16:00N 44°19' E 008°29'0 0.0
2018-Apr-15 15:30N 44°19' E 008°29'0 0.0
2018-Apr-15 15:00N 44°19' E 008°29'0 0.0
2018-Apr-15 14:30N 44°19' E 008°29'0 0.0
2018-Apr-15 14:00N 44°19' E 008°29'0 0.0
2018-Apr-15 13:30N 44°19' E 008°29'0 0.0
2018-Apr-15 13:00N 44°19' E 008°29'0 0.0
2018-Apr-15 12:30N 44°19' E 008°29'0 0.0
2018-Apr-15 11:57N 44°19' E 008°29'0 0.0
2018-Apr-15 11:30N 44°19' E 008°29'0 0.0
2018-Apr-15 11:00N 44°19' E 008°29'0 0.0
2018-Apr-15 10:30N 44°19' E 008°29'0 0.0
2018-Apr-15 10:00N 44°19' E 008°29'0 0.0
2018-Apr-15 09:30N 44°19' E 008°29'0 0.0
2018-Apr-15 09:00N 44°19' E 008°29'0 0.0
2018-Apr-15 08:30N 44°19' E 008°29'0 0.0
2018-Apr-15 08:00N 44°19' E 008°29'0 0.0
2018-Apr-15 07:30N 44°19' E 008°29'0 0.0
2018-Apr-15 07:00N 44°19' E 008°29'0 0.0
2018-Apr-15 06:30N 44°19' E 008°29'2 3.1
2018-Apr-15 06:00N 44°18' E 008°31'713.4
2018-Apr-15 05:31N 44°12' E 008°30'815.2
2018-Apr-15 05:00N 44°05' E 008°26'713.8
2018-Apr-15 04:30N 43°58' E 008°22'713.6
2018-Apr-15 04:00N 43°52' E 008°18'612.8
2018-Apr-15 03:30N 43°48' E 008°11'713.6
2018-Apr-15 03:00N 43°44' E 008°04'913.7
2018-Apr-15 02:21N 43°39' E 007°53'614.0
2018-Apr-15 01:55N 43°36' E 007°46'614.1
2018-Apr-15 01:30N 43°33' E 007°39'714.2
2018-Apr-15 01:01N 43°29' E 007°32'  
Track history (hours):
 
Tides and Currents Weather Stations Pressure Air Temp Water Temp Dewpoint Dewpoint Depression Visibility Wind Speed Wind Dir Waves Ship Positions

Costa Victoria

Last reported at 2018-Apr-25 00:35 UTC. Time now 2018-Apr-25 02:41 UTC.
Position N 41°23' E 009°25'.

Length 252 m; draft 8.2 m.

Type: Passenger vessel. MMSI: 247109000.

Date/timePositionNaut miles runAvg speedWind from/ knotsBaromVisibWave heightAir tempDewpointWater temp
2018-Apr-25 00:35N 41°23' E 009°25'116.0
2018-Apr-25 00:30N 41°23' E 009°26'1015.8
2018-Apr-24 23:54N 41°27' E 009°38'615.8
2018-Apr-24 23:30N 41°30' E 009°46'4115.7
2018-Apr-24 20:55N 41°45' E 010°36'715.7
2018-Apr-24 20:30N 41°48' E 010°44'815.6
2018-Apr-24 20:00N 41°51' E 010°53'815.6
2018-Apr-24 19:30N 41°54' E 011°03'815.6
2018-Apr-24 19:01N 41°57' E 011°12'10 0.7
2018-Apr-24 03:32N 42°07' E 011°16'218.5
2018-Apr-24 03:26N 42°07' E 011°14'1318.4
2018-Apr-24 02:43N 42°09' E 010°56'418.6
2018-Apr-24 02:30N 42°09' E 010°51'1218.8
2018-Apr-24 01:53N 42°11' E 010°35'818.7
2018-Apr-24 01:29N 42°12' E 010°25'918.6
2018-Apr-24 01:00N 42°13' E 010°14'918.5
2018-Apr-24 00:30N 42°15' E 010°01'815.2
2018-Apr-24 00:00N 42°19' E 009°53'917.7
2018-Apr-23 23:30N 42°28' E 009°51'918.8
2018-Apr-23 23:00N 42°37' E 009°46'1019.2
2018-Apr-23 22:30N 42°46' E 009°41'1019.3
2018-Apr-23 22:00N 42°55' E 009°38'1019.3
2018-Apr-23 21:30N 43°04' E 009°35'1019.8
2018-Apr-23 21:00N 43°14' E 009°32'1019.6
2018-Apr-23 20:30N 43°24' E 009°30'1019.9
2018-Apr-23 20:00N 43°33' E 009°36'1019.6
2018-Apr-23 19:30N 43°42' E 009°42'1019.5
2018-Apr-23 19:00N 43°50' E 009°49'918.7
2018-Apr-23 18:30N 43°59' E 009°53'713.0
2018-Apr-23 18:00N 44°05' E 009°51'1 2.6
2018-Apr-23 17:29N 44°06' E 009°50'0 0.0
2018-Apr-23 16:59N 44°06' E 009°50'0 0.0
2018-Apr-23 16:29N 44°06' E 009°50'0 0.0
2018-Apr-23 15:59N 44°06' E 009°50'0 0.0
2018-Apr-23 15:29N 44°06' E 009°50'0 0.0
2018-Apr-23 14:59N 44°06' E 009°50'0 0.0
2018-Apr-23 14:29N 44°06' E 009°50'0 0.0
2018-Apr-23 13:59N 44°06' E 009°50'0 0.0
2018-Apr-23 13:29N 44°06' E 009°50'0 0.0
2018-Apr-23 12:59N 44°06' E 009°50'0 0.0
2018-Apr-23 12:29N 44°06' E 009°50'0 0.0
2018-Apr-23 11:59N 44°06' E 009°50'0 0.0
2018-Apr-23 11:29N 44°06' E 009°50'0 0.0
2018-Apr-23 10:59N 44°06' E 009°50'0 0.0
2018-Apr-23 10:29N 44°06' E 009°50'0 0.0
2018-Apr-23 10:00N 44°06' E 009°50'0 0.0
2018-Apr-23 09:30N 44°06' E 009°50'0 0.0
2018-Apr-23 09:00N 44°06' E 009°50'0 0.0
2018-Apr-23 08:30N 44°06' E 009°50'0 0.0
2018-Apr-23 08:00N 44°06' E 009°50'0 0.0
2018-Apr-23 07:30N 44°06' E 009°50'0 0.0
2018-Apr-23 07:00N 44°06' E 009°50'0 0.0
2018-Apr-23 06:30N 44°06' E 009°50'0 0.0
2018-Apr-23 06:00N 44°06' E 009°50'0 0.0
2018-Apr-23 05:30N 44°06' E 009°50'0 0.0
2018-Apr-23 05:00N 44°06' E 009°50'0 0.2
2018-Apr-23 04:31N 44°06' E 009°50'4 7.4
2018-Apr-23 04:00N 44°03' E 009°52'510.7
2018-Apr-23 03:31N 43°58' E 009°56'510.2
2018-Apr-23 03:01N 43°53' E 009°55'5 9.8
2018-Apr-23 02:30N 43°49' E 009°52'510.2
2018-Apr-23 02:01N 43°46' E 009°47'5 9.9
2018-Apr-23 01:31N 43°43' E 009°41'5 9.7
2018-Apr-23 01:00N 43°44' E 009°34'510.0
2018-Apr-23 00:31N 43°44' E 009°27'5 9.9
2018-Apr-23 00:00N 43°44' E 009°20'5 9.8
2018-Apr-22 23:30N 43°44' E 009°14'5 9.7
2018-Apr-22 23:01N 43°44' E 009°07'5 9.5
2018-Apr-22 22:30N 43°47' E 009°02'510.0
2018-Apr-22 22:01N 43°51' E 008°58'5 9.9
2018-Apr-22 21:31N 43°55' E 008°55'5 9.6
2018-Apr-22 21:00N 43°59' E 008°51'5 9.7
2018-Apr-22 20:30N 44°03' E 008°47'5 9.7
2018-Apr-22 20:00N 44°07' E 008°43'5 9.7
2018-Apr-22 19:31N 44°11' E 008°39'5 9.6
2018-Apr-22 19:01N 44°15' E 008°35'510.0
2018-Apr-22 18:30N 44°19' E 008°31'1 1.9
2018-Apr-22 18:00N 44°19' E 008°29'0 0.0
2018-Apr-22 17:30N 44°19' E 008°29'0 0.0
2018-Apr-22 17:00N 44°19' E 008°29'0 0.0
2018-Apr-22 16:30N 44°19' E 008°29'0 0.0
2018-Apr-22 16:00N 44°19' E 008°29'0 0.0
2018-Apr-22 15:30N 44°19' E 008°29'0 0.0
2018-Apr-22 15:00N 44°19' E 008°29'0 0.0
2018-Apr-22 14:30N 44°19' E 008°29'0 0.0
2018-Apr-22 14:00N 44°19' E 008°29'0 0.0
2018-Apr-22 13:30N 44°19' E 008°29'0 0.0
2018-Apr-22 13:00N 44°19' E 008°29'0 0.0
2018-Apr-22 12:30N 44°19' E 008°29'0 0.0
2018-Apr-22 12:00N 44°19' E 008°29'0 0.0
2018-Apr-22 11:30N 44°19' E 008°29'0 0.0
2018-Apr-22 11:00N 44°19' E 008°29'0 0.0
2018-Apr-22 10:30N 44°19' E 008°29'0 0.0
2018-Apr-22 10:00N 44°19' E 008°29'0 0.0
2018-Apr-22 09:30N 44°19' E 008°29'0 0.0
2018-Apr-22 09:00N 44°19' E 008°29'0 0.0
2018-Apr-22 08:30N 44°19' E 008°29'0 0.0
2018-Apr-22 08:00N 44°19' E 008°29'0 0.0
2018-Apr-22 07:30N 44°19' E 008°29'0 0.0
2018-Apr-22 07:00N 44°19' E 008°29'0 0.0
2018-Apr-22 06:30N 44°19' E 008°29'0 0.0
2018-Apr-22 06:00N 44°19' E 008°29'0 0.3
2018-Apr-22 05:30N 44°19' E 008°29'2 4.0
2018-Apr-22 05:00N 44°17' E 008°32'510.7
2018-Apr-22 04:30N 44°12' E 008°32'510.6
2018-Apr-22 04:00N 44°07' E 008°29'612.3
2018-Apr-22 03:31N 44°02' E 008°25'714.5
2018-Apr-22 03:01N 43°55' E 008°22'815.7
2018-Apr-22 02:30N 43°49' E 008°14'816.3
2018-Apr-22 02:00N 43°45' E 008°05'816.2
2018-Apr-22 01:31N 43°40' E 007°56'815.8
2018-Apr-22 01:01N 43°36' E 007°47'815.7
2018-Apr-22 00:30N 43°32' E 007°37'816.0
2018-Apr-22 00:01N 43°27' E 007°29'816.5
2018-Apr-21 23:30N 43°22' E 007°20'917.2
2018-Apr-21 23:00N 43°17' E 007°10'816.6
2018-Apr-21 22:31N 43°12' E 007°02'7114.6
2018-Apr-21 17:37N 43°07' E 005°24'216.1
2018-Apr-21 17:30N 43°08' E 005°22'715.3
2018-Apr-21 17:01N 43°14' E 005°16'714.0
2018-Apr-21 16:30N 43°21' E 005°18'2 0.2
2018-Apr-21 07:53N 43°20' E 005°20'0 0.0
2018-Apr-21 05:59N 43°20' E 005°20'2 3.7
2018-Apr-21 05:24N 43°21' E 005°18'410.6
2018-Apr-21 04:59N 43°18' E 005°13'817.6
2018-Apr-21 04:30N 43°10' E 005°08'1020.2
2018-Apr-21 04:00N 43°03' E 004°59'1019.8
2018-Apr-21 03:30N 42°56' E 004°49'917.4
2018-Apr-21 03:00N 42°49' E 004°41'12317.6
2018-Apr-20 20:03N 41°25' E 002°41'119.4
2018-Apr-20 20:00N 41°25' E 002°40'1019.3
2018-Apr-20 19:31N 41°19' E 002°30'1019.4
2018-Apr-20 19:01N 41°13' E 002°20'918.8
2018-Apr-20 18:31N 41°10' E 002°08'1019.1
2018-Apr-20 18:01N 41°07' E 001°56'1019.2
2018-Apr-20 17:31N 41°05' E 001°43'1019.4
2018-Apr-20 17:01N 41°04' E 001°31'107 4.7
2018-Apr-19 18:15N 39°23' E 002°20'310.8
2018-Apr-19 18:00N 39°23' E 002°23'510.9
2018-Apr-19 17:30N 39°23' E 002°31'510.7
2018-Apr-19 17:00N 39°27' E 002°36'611.0
2018-Apr-19 16:30N 39°32' E 002°39'2 3.9
2018-Apr-19 15:59N 39°33' E 002°38'0 0.0
2018-Apr-19 15:29N 39°33' E 002°38'0 0.0
2018-Apr-19 14:59N 39°33' E 002°38'0 0.0
2018-Apr-19 14:29N 39°33' E 002°38'0 0.0
2018-Apr-19 13:59N 39°33' E 002°38'0 0.0
2018-Apr-19 13:29N 39°33' E 002°38'0 0.0
2018-Apr-19 12:59N 39°33' E 002°38'0 0.0
2018-Apr-19 12:29N 39°33' E 002°38'0 0.0
2018-Apr-19 11:59N 39°33' E 002°38'0 0.0
2018-Apr-19 11:29N 39°33' E 002°38'0 0.0
2018-Apr-19 10:59N 39°33' E 002°38'0 0.0
2018-Apr-19 10:29N 39°33' E 002°38'0 0.0
2018-Apr-19 09:59N 39°33' E 002°38'0 0.0
2018-Apr-19 09:29N 39°33' E 002°38'0 0.0
2018-Apr-19 08:59N 39°33' E 002°38'0 0.0
2018-Apr-19 08:29N 39°33' E 002°38'0 0.0
2018-Apr-19 07:59N 39°33' E 002°38'0 0.0
2018-Apr-19 07:29N 39°33' E 002°38'0 0.0
2018-Apr-19 06:59N 39°33' E 002°38'0 0.0
2018-Apr-19 06:29N 39°33' E 002°38'0 0.0
2018-Apr-19 05:59N 39°33' E 002°38'1 1.0
2018-Apr-19 05:30N 39°33' E 002°39'3 6.4
2018-Apr-19 05:00N 39°30' E 002°37'5 9.7
2018-Apr-19 04:30N 39°27' E 002°33'510.2
2018-Apr-19 04:00N 39°26' E 002°27'611.3
2018-Apr-19 03:30N 39°29' E 002°21'20 7.8
2018-Apr-19 00:58N 39°48' E 002°28'510.1
2018-Apr-19 00:30N 39°50' E 002°33'5 9.6
2018-Apr-19 00:00N 39°53' E 002°38'5 9.9
2018-Apr-18 23:29N 39°56' E 002°44'1110.5
2018-Apr-18 22:24N 40°03' E 002°56'388 9.0
2018-Apr-17 03:03N 42°08' E 011°04'218.6
2018-Apr-17 02:57N 42°08' E 011°01'818.5
2018-Apr-17 02:30N 42°09' E 010°50'1019.8
2018-Apr-17 02:00N 42°11' E 010°37'1019.8
2018-Apr-17 01:30N 42°12' E 010°24'1019.9
2018-Apr-17 01:00N 42°14' E 010°11'1019.9
2018-Apr-17 00:30N 42°17' E 009°58'1019.9
2018-Apr-16 23:59N 42°26' E 009°53'1020.0
2018-Apr-16 23:29N 42°36' E 009°48'920.0
2018-Apr-16 23:00N 42°44' E 009°43'1119.6
2018-Apr-16 22:26N 42°55' E 009°38'819.9
2018-Apr-16 22:00N 43°03' E 009°35'1019.9
2018-Apr-16 21:30N 43°13' E 009°32'1020.3
2018-Apr-16 21:00N 43°23' E 009°30'1019.9
2018-Apr-16 20:30N 43°32' E 009°36'1020.1
2018-Apr-16 20:00N 43°41' E 009°42'1020.1
2018-Apr-16 19:30N 43°50' E 009°48'1019.6
2018-Apr-16 19:00N 43°59' E 009°53'713.6
2018-Apr-16 18:30N 44°06' E 009°51'1 1.5
2018-Apr-16 17:58N 44°06' E 009°50'0 0.0
2018-Apr-16 17:28N 44°06' E 009°50'0 0.0
2018-Apr-16 16:58N 44°06' E 009°50'0 0.0
2018-Apr-16 16:25N 44°06' E 009°50'0 0.0
2018-Apr-16 15:58N 44°06' E 009°50'0 0.0
2018-Apr-16 15:28N 44°06' E 009°50'0 0.0
2018-Apr-16 14:58N 44°06' E 009°50'0 0.0
2018-Apr-16 14:28N 44°06' E 009°50'0 0.0
2018-Apr-16 13:58N 44°06' E 009°50'0 0.0
2018-Apr-16 13:28N 44°06' E 009°50'0 0.0
2018-Apr-16 12:58N 44°06' E 009°50'0 0.0
2018-Apr-16 12:28N 44°06' E 009°50'0 0.0
2018-Apr-16 11:58N 44°06' E 009°50'0 0.0
2018-Apr-16 11:28N 44°06' E 009°50'0 0.0
2018-Apr-16 10:58N 44°06' E 009°50'0 0.0
2018-Apr-16 10:28N 44°06' E 009°50'0 0.0
2018-Apr-16 09:58N 44°06' E 009°50'0 0.0
2018-Apr-16 09:28N 44°06' E 009°50'0 0.0
2018-Apr-16 08:58N 44°06' E 009°50'0 0.0
2018-Apr-16 08:28N 44°06' E 009°50'0 0.0
2018-Apr-16 07:58N 44°06' E 009°50'0 0.0
2018-Apr-16 07:28N 44°06' E 009°50'0 0.0
2018-Apr-16 06:58N 44°06' E 009°50'0 0.0
2018-Apr-16 06:28N 44°06' E 009°50'0 0.0
2018-Apr-16 05:58N 44°06' E 009°50'0 0.0
2018-Apr-16 05:28N 44°06' E 009°50'0 0.0
2018-Apr-16 04:58N 44°06' E 009°50'0 0.3
2018-Apr-16 04:30N 44°06' E 009°50'3 6.3
2018-Apr-16 04:00N 44°03' E 009°52'5 9.8
2018-Apr-16 03:30N 43°60' E 009°56'510.6
2018-Apr-16 03:00N 43°55' E 009°55'510.1
2018-Apr-16 02:30N 43°50' E 009°53'5 9.6
2018-Apr-16 02:00N 43°47' E 009°48'5 9.1
2018-Apr-16 01:30N 43°44' E 009°43'5 9.7
2018-Apr-16 01:00N 43°44' E 009°36'5 9.9
2018-Apr-16 00:30N 43°44' E 009°29'510.1
2018-Apr-16 00:00N 43°44' E 009°22'5 9.6
2018-Apr-15 23:30N 43°44' E 009°16'5 9.3
2018-Apr-15 23:00N 43°44' E 009°09'4 8.7
2018-Apr-15 22:30N 43°45' E 009°04'510.2
2018-Apr-15 22:00N 43°50' E 008°60'510.1
2018-Apr-15 21:30N 43°54' E 008°56'510.3
2018-Apr-15 21:00N 43°58' E 008°52'510.6
2018-Apr-15 20:30N 44°02' E 008°47'611.0
2018-Apr-15 20:00N 44°07' E 008°43'510.6
2018-Apr-15 19:30N 44°11' E 008°39'510.3
2018-Apr-15 19:00N 44°15' E 008°34'5 9.3
2018-Apr-15 18:30N 44°19' E 008°30'1 1.6
2018-Apr-15 18:00N 44°19' E 008°29'0 0.0
2018-Apr-15 17:30N 44°19' E 008°29'0 0.0
2018-Apr-15 17:00N 44°19' E 008°29'0 0.0
2018-Apr-15 16:30N 44°19' E 008°29'0 0.0
2018-Apr-15 16:00N 44°19' E 008°29'0 0.0
2018-Apr-15 15:30N 44°19' E 008°29'0 0.0
2018-Apr-15 15:00N 44°19' E 008°29'0 0.0
2018-Apr-15 14:30N 44°19' E 008°29'0 0.0
2018-Apr-15 14:00N 44°19' E 008°29'0 0.0
2018-Apr-15 13:30N 44°19' E 008°29'0 0.0
2018-Apr-15 13:00N 44°19' E 008°29'0 0.0
2018-Apr-15 12:30N 44°19' E 008°29'0 0.0
2018-Apr-15 11:57N 44°19' E 008°29'0 0.0
2018-Apr-15 11:30N 44°19' E 008°29'0 0.0
2018-Apr-15 11:00N 44°19' E 008°29'0 0.0
2018-Apr-15 10:30N 44°19' E 008°29'0 0.0
2018-Apr-15 10:00N 44°19' E 008°29'0 0.0
2018-Apr-15 09:30N 44°19' E 008°29'0 0.0
2018-Apr-15 09:00N 44°19' E 008°29'0 0.0
2018-Apr-15 08:30N 44°19' E 008°29'0 0.0
2018-Apr-15 08:00N 44°19' E 008°29'0 0.0
2018-Apr-15 07:30N 44°19' E 008°29'0 0.0
2018-Apr-15 07:00N 44°19' E 008°29'0 0.0
2018-Apr-15 06:30N 44°19' E 008°29'2 3.1
2018-Apr-15 06:00N 44°18' E 008°31'713.4
2018-Apr-15 05:31N 44°12' E 008°30'815.2
2018-Apr-15 05:00N 44°05' E 008°26'713.8
2018-Apr-15 04:30N 43°58' E 008°22'713.6
2018-Apr-15 04:00N 43°52' E 008°18'612.8
2018-Apr-15 03:30N 43°48' E 008°11'713.6
2018-Apr-15 03:00N 43°44' E 008°04'913.7
2018-Apr-15 02:21N 43°39' E 007°53'614.0
2018-Apr-15 01:55N 43°36' E 007°46'614.1
2018-Apr-15 01:30N 43°33' E 007°39'714.2
2018-Apr-15 01:01N 43°29' E 007°32'  

Dump ship's entire track history